sensor_id;sensor_type;location;lat;lon;timestamp;P1;durP1;ratioP1;P2;durP2;ratioP2
40170;SDS011;37650;52.790;18.268;2022-12-29T00:01:20;12.50;;;6.90;;
40170;SDS011;37650;52.790;18.268;2022-12-29T00:04:41;11.80;;;5.50;;
40170;SDS011;37650;52.790;18.268;2022-12-29T00:08:02;13.50;;;8.10;;
40170;SDS011;37650;52.790;18.268;2022-12-29T00:11:24;13.20;;;6.20;;
40170;SDS011;37650;52.790;18.268;2022-12-29T00:14:47;12.60;;;7.20;;
40170;SDS011;37650;52.790;18.268;2022-12-29T00:18:27;10.70;;;5.60;;
40170;SDS011;37650;52.790;18.268;2022-12-29T00:21:48;12.80;;;5.60;;
40170;SDS011;37650;52.790;18.268;2022-12-29T00:25:27;12.50;;;7.60;;
40170;SDS011;37650;52.790;18.268;2022-12-29T00:29:07;11.10;;;6.50;;
40170;SDS011;37650;52.790;18.268;2022-12-29T00:32:47;17.50;;;9.30;;
40170;SDS011;37650;52.790;18.268;2022-12-29T00:36:31;14.90;;;8.40;;
40170;SDS011;37650;52.790;18.268;2022-12-29T00:39:55;20.20;;;10.70;;
40170;SDS011;37650;52.790;18.268;2022-12-29T00:43:35;21.30;;;8.70;;
40170;SDS011;37650;52.790;18.268;2022-12-29T00:47:14;12.90;;;6.00;;
40170;SDS011;37650;52.790;18.268;2022-12-29T00:50:36;23.80;;;7.70;;
40170;SDS011;37650;52.790;18.268;2022-12-29T00:53:57;19.10;;;9.30;;
40170;SDS011;37650;52.790;18.268;2022-12-29T00:57:18;16.40;;;8.20;;
40170;SDS011;37650;52.790;18.268;2022-12-29T01:00:39;11.40;;;6.40;;
40170;SDS011;37650;52.790;18.268;2022-12-29T01:04:01;11.10;;;6.30;;
40170;SDS011;37650;52.790;18.268;2022-12-29T01:07:22;9.90;;;6.00;;
40170;SDS011;37650;52.790;18.268;2022-12-29T01:10:43;15.00;;;8.40;;
40170;SDS011;37650;52.790;18.268;2022-12-29T01:14:04;13.70;;;5.90;;
40170;SDS011;37650;52.790;18.268;2022-12-29T01:17:27;10.90;;;6.20;;
40170;SDS011;37650;52.790;18.268;2022-12-29T01:24:10;16.60;;;8.90;;
40170;SDS011;37650;52.790;18.268;2022-12-29T01:27:31;9.40;;;6.00;;
40170;SDS011;37650;52.790;18.268;2022-12-29T01:30:52;14.50;;;7.20;;
40170;SDS011;37650;52.790;18.268;2022-12-29T01:34:13;11.30;;;7.10;;
40170;SDS011;37650;52.790;18.268;2022-12-29T01:37:34;11.20;;;6.40;;
40170;SDS011;37650;52.790;18.268;2022-12-29T01:40:56;12.40;;;5.90;;
40170;SDS011;37650;52.790;18.268;2022-12-29T01:48:10;16.60;;;7.70;;
40170;SDS011;37650;52.790;18.268;2022-12-29T01:51:35;16.40;;;7.40;;
40170;SDS011;37650;52.790;18.268;2022-12-29T01:55:04;16.60;;;7.40;;
40170;SDS011;37650;52.790;18.268;2022-12-29T01:58:29;24.70;;;15.20;;
40170;SDS011;37650;52.790;18.268;2022-12-29T02:01:54;13.30;;;5.60;;
40170;SDS011;37650;52.790;18.268;2022-12-29T02:05:18;10.10;;;4.70;;
40170;SDS011;37650;52.790;18.268;2022-12-29T02:08:45;8.50;;;4.80;;
40170;SDS011;37650;52.790;18.268;2022-12-29T02:12:07;8.40;;;5.40;;
40170;SDS011;37650;52.790;18.268;2022-12-29T02:15:34;10.40;;;5.40;;
40170;SDS011;37650;52.790;18.268;2022-12-29T02:26:39;11.50;;;6.90;;
40170;SDS011;37650;52.790;18.268;2022-12-29T02:34:12;9.40;;;5.60;;
40170;SDS011;37650;52.790;18.268;2022-12-29T02:37:55;9.50;;;6.50;;
40170;SDS011;37650;52.790;18.268;2022-12-29T02:45:03;9.80;;;6.00;;
40170;SDS011;37650;52.790;18.268;2022-12-29T02:48:38;11.00;;;7.90;;
40170;SDS011;37650;52.790;18.268;2022-12-29T02:52:16;12.50;;;7.30;;
40170;SDS011;37650;52.790;18.268;2022-12-29T02:55:48;12.00;;;9.10;;
40170;SDS011;37650;52.790;18.268;2022-12-29T02:59:10;9.20;;;6.90;;
40170;SDS011;37650;52.790;18.268;2022-12-29T03:17:08;8.00;;;4.90;;
40170;SDS011;37650;52.790;18.268;2022-12-29T03:24:35;11.10;;;5.70;;
40170;SDS011;37650;52.790;18.268;2022-12-29T03:28:03;8.90;;;5.00;;
40170;SDS011;37650;52.790;18.268;2022-12-29T03:31:32;9.60;;;5.10;;
40170;SDS011;37650;52.790;18.268;2022-12-29T03:34:57;10.50;;;4.80;;
40170;SDS011;37650;52.790;18.268;2022-12-29T03:41:46;10.00;;;4.70;;
40170;SDS011;37650;52.790;18.268;2022-12-29T03:45:13;10.00;;;5.10;;
40170;SDS011;37650;52.790;18.268;2022-12-29T03:48:34;7.00;;;3.90;;
40170;SDS011;37650;52.790;18.268;2022-12-29T03:51:55;8.60;;;5.10;;
40170;SDS011;37650;52.790;18.268;2022-12-29T03:55:17;8.30;;;4.30;;
40170;SDS011;37650;52.790;18.268;2022-12-29T03:58:38;7.20;;;4.00;;
40170;SDS011;37650;52.790;18.268;2022-12-29T04:02:10;11.20;;;4.50;;
40170;SDS011;37650;52.790;18.268;2022-12-29T04:05:32;8.20;;;4.30;;
40170;SDS011;37650;52.790;18.268;2022-12-29T04:08:53;9.10;;;4.50;;
40170;SDS011;37650;52.790;18.268;2022-12-29T04:12:17;8.40;;;4.70;;
40170;SDS011;37650;52.790;18.268;2022-12-29T04:15:38;9.80;;;4.80;;
40170;SDS011;37650;52.790;18.268;2022-12-29T04:18:59;6.90;;;4.20;;
40170;SDS011;37650;52.790;18.268;2022-12-29T04:22:21;4.60;;;3.10;;
40170;SDS011;37650;52.790;18.268;2022-12-29T04:25:44;6.30;;;3.80;;
40170;SDS011;37650;52.790;18.268;2022-12-29T04:29:08;8.10;;;4.10;;
40170;SDS011;37650;52.790;18.268;2022-12-29T04:32:37;6.90;;;3.30;;
40170;SDS011;37650;52.790;18.268;2022-12-29T04:36:00;6.70;;;3.70;;
40170;SDS011;37650;52.790;18.268;2022-12-29T04:39:22;6.80;;;3.70;;
40170;SDS011;37650;52.790;18.268;2022-12-29T04:42:42;10.40;;;5.50;;
40170;SDS011;37650;52.790;18.268;2022-12-29T04:46:03;11.10;;;5.50;;
40170;SDS011;37650;52.790;18.268;2022-12-29T04:49:35;14.70;;;5.40;;
40170;SDS011;37650;52.790;18.268;2022-12-29T04:53:10;14.50;;;5.50;;
40170;SDS011;37650;52.790;18.268;2022-12-29T04:56:31;10.80;;;5.40;;
40170;SDS011;37650;52.790;18.268;2022-12-29T04:59:52;16.20;;;5.70;;
40170;SDS011;37650;52.790;18.268;2022-12-29T05:03:14;17.90;;;12.60;;
40170;SDS011;37650;52.790;18.268;2022-12-29T05:06:37;10.40;;;6.10;;
40170;SDS011;37650;52.790;18.268;2022-12-29T05:09:59;10.90;;;6.70;;
40170;SDS011;37650;52.790;18.268;2022-12-29T05:13:20;102.20;;;38.20;;
40170;SDS011;37650;52.790;18.268;2022-12-29T05:16:43;124.90;;;42.20;;
40170;SDS011;37650;52.790;18.268;2022-12-29T05:20:04;46.50;;;20.90;;
40170;SDS011;37650;52.790;18.268;2022-12-29T05:23:27;17.70;;;8.10;;
40170;SDS011;37650;52.790;18.268;2022-12-29T05:26:58;22.30;;;10.50;;
40170;SDS011;37650;52.790;18.268;2022-12-29T05:30:39;13.60;;;7.30;;
40170;SDS011;37650;52.790;18.268;2022-12-29T05:34:01;13.70;;;6.30;;
40170;SDS011;37650;52.790;18.268;2022-12-29T05:37:22;8.20;;;5.00;;
40170;SDS011;37650;52.790;18.268;2022-12-29T05:40:44;16.00;;;7.90;;
40170;SDS011;37650;52.790;18.268;2022-12-29T05:44:34;8.80;;;4.70;;
40170;SDS011;37650;52.790;18.268;2022-12-29T05:48:12;10.60;;;7.90;;
40170;SDS011;37650;52.790;18.268;2022-12-29T05:52:00;49.20;;;18.80;;
40170;SDS011;37650;52.790;18.268;2022-12-29T05:55:23;30.10;;;13.80;;
40170;SDS011;37650;52.790;18.268;2022-12-29T05:58:46;59.00;;;25.50;;
40170;SDS011;37650;52.790;18.268;2022-12-29T06:02:08;50.60;;;23.80;;
40170;SDS011;37650;52.790;18.268;2022-12-29T06:08:52;16.30;;;9.10;;
40170;SDS011;37650;52.790;18.268;2022-12-29T06:12:14;13.40;;;7.60;;
40170;SDS011;37650;52.790;18.268;2022-12-29T06:15:37;11.00;;;5.40;;
40170;SDS011;37650;52.790;18.268;2022-12-29T06:19:01;10.40;;;5.10;;
40170;SDS011;37650;52.790;18.268;2022-12-29T06:22:23;19.80;;;10.20;;
40170;SDS011;37650;52.790;18.268;2022-12-29T06:25:46;24.00;;;11.30;;
40170;SDS011;37650;52.790;18.268;2022-12-29T06:29:09;14.30;;;6.20;;
40170;SDS011;37650;52.790;18.268;2022-12-29T06:32:30;20.30;;;13.80;;
40170;SDS011;37650;52.790;18.268;2022-12-29T06:35:57;7.90;;;4.70;;
40170;SDS011;37650;52.790;18.268;2022-12-29T06:39:18;12.20;;;6.80;;
40170;SDS011;37650;52.790;18.268;2022-12-29T06:42:55;16.20;;;7.20;;
40170;SDS011;37650;52.790;18.268;2022-12-29T06:46:36;15.70;;;7.30;;
40170;SDS011;37650;52.790;18.268;2022-12-29T06:49:57;13.90;;;5.90;;
40170;SDS011;37650;52.790;18.268;2022-12-29T06:53:18;18.60;;;5.80;;
40170;SDS011;37650;52.790;18.268;2022-12-29T06:56:40;8.80;;;4.40;;
40170;SDS011;37650;52.790;18.268;2022-12-29T07:00:02;15.10;;;5.90;;
40170;SDS011;37650;52.790;18.268;2022-12-29T07:03:25;8.20;;;4.20;;
40170;SDS011;37650;52.790;18.268;2022-12-29T07:06:46;9.40;;;3.40;;
40170;SDS011;37650;52.790;18.268;2022-12-29T07:10:07;10.60;;;5.20;;
40170;SDS011;37650;52.790;18.268;2022-12-29T07:13:30;10.40;;;4.50;;
40170;SDS011;37650;52.790;18.268;2022-12-29T07:16:51;8.10;;;4.20;;
40170;SDS011;37650;52.790;18.268;2022-12-29T07:20:12;13.30;;;6.00;;
40170;SDS011;37650;52.790;18.268;2022-12-29T07:23:33;14.30;;;5.40;;
40170;SDS011;37650;52.790;18.268;2022-12-29T07:26:55;13.40;;;4.70;;
40170;SDS011;37650;52.790;18.268;2022-12-29T07:30:18;8.50;;;4.40;;
40170;SDS011;37650;52.790;18.268;2022-12-29T07:33:40;6.80;;;3.30;;
40170;SDS011;37650;52.790;18.268;2022-12-29T07:37:01;11.70;;;5.40;;
40170;SDS011;37650;52.790;18.268;2022-12-29T07:40:22;9.10;;;4.80;;
40170;SDS011;37650;52.790;18.268;2022-12-29T07:43:46;7.10;;;3.90;;
40170;SDS011;37650;52.790;18.268;2022-12-29T07:47:19;13.50;;;6.10;;
40170;SDS011;37650;52.790;18.268;2022-12-29T07:50:40;11.70;;;5.40;;
40170;SDS011;37650;52.790;18.268;2022-12-29T07:54:01;11.10;;;6.70;;
40170;SDS011;37650;52.790;18.268;2022-12-29T07:57:23;16.20;;;8.50;;
40170;SDS011;37650;52.790;18.268;2022-12-29T08:00:44;17.60;;;7.70;;
40170;SDS011;37650;52.790;18.268;2022-12-29T08:04:05;16.50;;;6.10;;
40170;SDS011;37650;52.790;18.268;2022-12-29T08:07:26;13.10;;;6.50;;
40170;SDS011;37650;52.790;18.268;2022-12-29T08:10:51;13.80;;;7.90;;
40170;SDS011;37650;52.790;18.268;2022-12-29T08:14:12;20.20;;;9.70;;
40170;SDS011;37650;52.790;18.268;2022-12-29T08:17:33;23.90;;;12.60;;
40170;SDS011;37650;52.790;18.268;2022-12-29T08:20:55;18.10;;;9.50;;
40170;SDS011;37650;52.790;18.268;2022-12-29T08:24:16;20.20;;;10.60;;
40170;SDS011;37650;52.790;18.268;2022-12-29T08:31:00;11.00;;;6.10;;
40170;SDS011;37650;52.790;18.268;2022-12-29T08:34:26;8.90;;;5.10;;
40170;SDS011;37650;52.790;18.268;2022-12-29T08:37:49;13.40;;;5.60;;
40170;SDS011;37650;52.790;18.268;2022-12-29T08:41:10;19.10;;;9.10;;
40170;SDS011;37650;52.790;18.268;2022-12-29T08:44:32;20.80;;;9.40;;
40170;SDS011;37650;52.790;18.268;2022-12-29T08:47:53;17.80;;;10.30;;
40170;SDS011;37650;52.790;18.268;2022-12-29T08:51:14;20.10;;;10.20;;
40170;SDS011;37650;52.790;18.268;2022-12-29T08:54:35;12.80;;;6.10;;
40170;SDS011;37650;52.790;18.268;2022-12-29T08:57:56;12.20;;;7.60;;
40170;SDS011;37650;52.790;18.268;2022-12-29T09:01:18;14.30;;;7.10;;
40170;SDS011;37650;52.790;18.268;2022-12-29T09:04:40;13.00;;;7.10;;
40170;SDS011;37650;52.790;18.268;2022-12-29T09:08:02;13.50;;;8.10;;
40170;SDS011;37650;52.790;18.268;2022-12-29T09:11:25;17.30;;;11.70;;
40170;SDS011;37650;52.790;18.268;2022-12-29T09:14:46;16.40;;;7.80;;
40170;SDS011;37650;52.790;18.268;2022-12-29T09:18:08;14.00;;;8.30;;
40170;SDS011;37650;52.790;18.268;2022-12-29T09:21:30;14.70;;;7.90;;
40170;SDS011;37650;52.790;18.268;2022-12-29T09:24:52;14.40;;;6.70;;
40170;SDS011;37650;52.790;18.268;2022-12-29T09:28:13;11.00;;;5.60;;
40170;SDS011;37650;52.790;18.268;2022-12-29T09:31:34;12.50;;;6.80;;
40170;SDS011;37650;52.790;18.268;2022-12-29T09:35:01;24.30;;;12.10;;
40170;SDS011;37650;52.790;18.268;2022-12-29T09:38:22;34.80;;;16.90;;
40170;SDS011;37650;52.790;18.268;2022-12-29T09:41:49;10.90;;;7.20;;
40170;SDS011;37650;52.790;18.268;2022-12-29T09:45:25;18.90;;;10.70;;
40170;SDS011;37650;52.790;18.268;2022-12-29T09:49:04;14.30;;;7.90;;
40170;SDS011;37650;52.790;18.268;2022-12-29T09:52:53;17.50;;;10.80;;
40170;SDS011;37650;52.790;18.268;2022-12-29T09:56:21;21.20;;;8.20;;
40170;SDS011;37650;52.790;18.268;2022-12-29T09:59:44;21.00;;;9.50;;
40170;SDS011;37650;52.790;18.268;2022-12-29T10:03:19;25.20;;;11.10;;
40170;SDS011;37650;52.790;18.268;2022-12-29T10:14:10;27.10;;;12.20;;
40170;SDS011;37650;52.790;18.268;2022-12-29T10:25:02;21.70;;;10.60;;
40170;SDS011;37650;52.790;18.268;2022-12-29T10:28:38;15.40;;;8.10;;
40170;SDS011;37650;52.790;18.268;2022-12-29T10:36:04;34.50;;;13.50;;
40170;SDS011;37650;52.790;18.268;2022-12-29T10:39:41;58.00;;;27.00;;
40170;SDS011;37650;52.790;18.268;2022-12-29T10:43:26;31.40;;;19.90;;
40170;SDS011;37650;52.790;18.268;2022-12-29T10:46:56;30.30;;;16.70;;
40170;SDS011;37650;52.790;18.268;2022-12-29T10:50:22;21.20;;;9.40;;
40170;SDS011;37650;52.790;18.268;2022-12-29T10:53:45;18.50;;;8.70;;
40170;SDS011;37650;52.790;18.268;2022-12-29T10:57:54;26.30;;;11.70;;
40170;SDS011;37650;52.790;18.268;2022-12-29T11:00:58;17.20;;;7.10;;
40170;SDS011;37650;52.790;18.268;2022-12-29T11:07:55;13.90;;;7.80;;
40170;SDS011;37650;52.790;18.268;2022-12-29T11:11:25;12.40;;;5.90;;
40170;SDS011;37650;52.790;18.268;2022-12-29T11:15:06;12.60;;;5.80;;
40170;SDS011;37650;52.790;18.268;2022-12-29T11:18:35;14.10;;;6.50;;
40170;SDS011;37650;52.790;18.268;2022-12-29T11:22:19;14.30;;;9.10;;
40170;SDS011;37650;52.790;18.268;2022-12-29T11:25:42;12.40;;;8.30;;
40170;SDS011;37650;52.790;18.268;2022-12-29T11:32:28;11.10;;;6.60;;
40170;SDS011;37650;52.790;18.268;2022-12-29T11:43:05;10.50;;;7.80;;
40170;SDS011;37650;52.790;18.268;2022-12-29T11:46:28;13.40;;;5.50;;
40170;SDS011;37650;52.790;18.268;2022-12-29T11:49:54;14.50;;;7.60;;
40170;SDS011;37650;52.790;18.268;2022-12-29T11:53:23;6.60;;;4.40;;
40170;SDS011;37650;52.790;18.268;2022-12-29T11:56:45;13.30;;;11.60;;
40170;SDS011;37650;52.790;18.268;2022-12-29T12:00:14;11.50;;;5.90;;
40170;SDS011;37650;52.790;18.268;2022-12-29T12:03:47;11.40;;;9.00;;
40170;SDS011;37650;52.790;18.268;2022-12-29T12:07:40;10.70;;;6.30;;
40170;SDS011;37650;52.790;18.268;2022-12-29T12:11:08;12.10;;;6.40;;
40170;SDS011;37650;52.790;18.268;2022-12-29T12:14:34;11.30;;;7.60;;
40170;SDS011;37650;52.790;18.268;2022-12-29T12:18:16;8.30;;;5.90;;
40170;SDS011;37650;52.790;18.268;2022-12-29T12:22:10;10.70;;;8.30;;
40170;SDS011;37650;52.790;18.268;2022-12-29T12:25:43;15.20;;;9.30;;
40170;SDS011;37650;52.790;18.268;2022-12-29T12:29:34;10.80;;;6.90;;
40170;SDS011;37650;52.790;18.268;2022-12-29T12:55:42;8.70;;;5.00;;
40170;SDS011;37650;52.790;18.268;2022-12-29T13:06:22;8.70;;;5.80;;
40170;SDS011;37650;52.790;18.268;2022-12-29T13:10:02;9.00;;;6.80;;
40170;SDS011;37650;52.790;18.268;2022-12-29T13:17:41;12.40;;;6.60;;
40170;SDS011;37650;52.790;18.268;2022-12-29T13:28:32;12.60;;;7.90;;
40170;SDS011;37650;52.790;18.268;2022-12-29T13:36:18;11.90;;;5.30;;
40170;SDS011;37650;52.790;18.268;2022-12-29T13:39:54;13.00;;;6.80;;
40170;SDS011;37650;52.790;18.268;2022-12-29T13:43:18;10.40;;;7.70;;
40170;SDS011;37650;52.790;18.268;2022-12-29T13:46:43;12.10;;;6.90;;
40170;SDS011;37650;52.790;18.268;2022-12-29T13:50:20;11.50;;;8.60;;
40170;SDS011;37650;52.790;18.268;2022-12-29T14:04:33;9.10;;;6.40;;
40170;SDS011;37650;52.790;18.268;2022-12-29T14:07:59;11.00;;;8.20;;
40170;SDS011;37650;52.790;18.268;2022-12-29T14:11:36;11.40;;;9.60;;
40170;SDS011;37650;52.790;18.268;2022-12-29T14:18:43;12.20;;;8.70;;
40170;SDS011;37650;52.790;18.268;2022-12-29T14:22:05;13.10;;;10.20;;
40170;SDS011;37650;52.790;18.268;2022-12-29T14:33:02;14.20;;;8.30;;
40170;SDS011;37650;52.790;18.268;2022-12-29T14:43:34;11.30;;;6.10;;
40170;SDS011;37650;52.790;18.268;2022-12-29T14:46:57;10.10;;;7.00;;
40170;SDS011;37650;52.790;18.268;2022-12-29T14:57:19;23.40;;;12.20;;
40170;SDS011;37650;52.790;18.268;2022-12-29T15:00:43;23.70;;;13.50;;
40170;SDS011;37650;52.790;18.268;2022-12-29T15:04:13;21.10;;;10.00;;
40170;SDS011;37650;52.790;18.268;2022-12-29T15:07:41;19.40;;;10.50;;
40170;SDS011;37650;52.790;18.268;2022-12-29T15:14:53;24.20;;;10.50;;
40170;SDS011;37650;52.790;18.268;2022-12-29T15:21:49;43.70;;;20.50;;
40170;SDS011;37650;52.790;18.268;2022-12-29T15:25:19;32.10;;;17.10;;
40170;SDS011;37650;52.790;18.268;2022-12-29T15:28:43;27.70;;;17.00;;
40170;SDS011;37650;52.790;18.268;2022-12-29T15:35:38;57.00;;;26.60;;
40170;SDS011;37650;52.790;18.268;2022-12-29T15:38:59;49.30;;;24.30;;
40170;SDS011;37650;52.790;18.268;2022-12-29T15:46:56;17.70;;;13.30;;
40170;SDS011;37650;52.790;18.268;2022-12-29T15:50:28;18.80;;;15.10;;
40170;SDS011;37650;52.790;18.268;2022-12-29T15:53:52;15.20;;;10.60;;
40170;SDS011;37650;52.790;18.268;2022-12-29T15:57:28;19.90;;;14.50;;
40170;SDS011;37650;52.790;18.268;2022-12-29T16:00:56;22.30;;;15.80;;
40170;SDS011;37650;52.790;18.268;2022-12-29T16:04:19;24.10;;;14.30;;
40170;SDS011;37650;52.790;18.268;2022-12-29T16:07:51;42.30;;;22.50;;
40170;SDS011;37650;52.790;18.268;2022-12-29T16:11:22;38.60;;;19.30;;
40170;SDS011;37650;52.790;18.268;2022-12-29T16:14:50;99.50;;;44.60;;
40170;SDS011;37650;52.790;18.268;2022-12-29T16:18:23;39.60;;;22.80;;
40170;SDS011;37650;52.790;18.268;2022-12-29T16:21:48;27.60;;;15.50;;
40170;SDS011;37650;52.790;18.268;2022-12-29T16:25:14;33.50;;;19.30;;
40170;SDS011;37650;52.790;18.268;2022-12-29T16:28:41;22.50;;;12.80;;
40170;SDS011;37650;52.790;18.268;2022-12-29T16:32:03;24.00;;;11.50;;
40170;SDS011;37650;52.790;18.268;2022-12-29T16:35:45;34.00;;;16.80;;
40170;SDS011;37650;52.790;18.268;2022-12-29T16:39:13;34.60;;;17.90;;
40170;SDS011;37650;52.790;18.268;2022-12-29T16:42:47;37.50;;;18.40;;
40170;SDS011;37650;52.790;18.268;2022-12-29T16:46:26;33.70;;;15.30;;
40170;SDS011;37650;52.790;18.268;2022-12-29T16:49:51;30.70;;;14.90;;
40170;SDS011;37650;52.790;18.268;2022-12-29T16:53:31;30.60;;;16.30;;
40170;SDS011;37650;52.790;18.268;2022-12-29T16:56:58;29.30;;;14.70;;
40170;SDS011;37650;52.790;18.268;2022-12-29T17:00:21;24.00;;;12.70;;
40170;SDS011;37650;52.790;18.268;2022-12-29T17:03:46;25.30;;;12.10;;
40170;SDS011;37650;52.790;18.268;2022-12-29T17:07:15;26.70;;;11.20;;
40170;SDS011;37650;52.790;18.268;2022-12-29T17:10:39;27.50;;;13.70;;
40170;SDS011;37650;52.790;18.268;2022-12-29T17:14:26;29.00;;;14.80;;
40170;SDS011;37650;52.790;18.268;2022-12-29T17:17:51;25.90;;;13.80;;
40170;SDS011;37650;52.790;18.268;2022-12-29T17:21:15;29.50;;;15.40;;
40170;SDS011;37650;52.790;18.268;2022-12-29T17:24:36;33.10;;;16.50;;
40170;SDS011;37650;52.790;18.268;2022-12-29T17:27:59;24.40;;;13.00;;
40170;SDS011;37650;52.790;18.268;2022-12-29T17:31:26;23.20;;;12.40;;
40170;SDS011;37650;52.790;18.268;2022-12-29T17:34:47;25.50;;;12.30;;
40170;SDS011;37650;52.790;18.268;2022-12-29T17:38:21;28.80;;;14.30;;
40170;SDS011;37650;52.790;18.268;2022-12-29T17:41:45;20.30;;;12.40;;
40170;SDS011;37650;52.790;18.268;2022-12-29T17:45:12;16.20;;;8.70;;
40170;SDS011;37650;52.790;18.268;2022-12-29T17:48:35;16.90;;;9.70;;
40170;SDS011;37650;52.790;18.268;2022-12-29T17:51:57;13.40;;;8.80;;
40170;SDS011;37650;52.790;18.268;2022-12-29T17:55:19;14.40;;;9.00;;
40170;SDS011;37650;52.790;18.268;2022-12-29T17:58:43;16.40;;;10.30;;
40170;SDS011;37650;52.790;18.268;2022-12-29T18:02:28;18.10;;;11.00;;
40170;SDS011;37650;52.790;18.268;2022-12-29T18:05:52;11.80;;;8.90;;
40170;SDS011;37650;52.790;18.268;2022-12-29T18:09:13;14.40;;;10.80;;
40170;SDS011;37650;52.790;18.268;2022-12-29T18:12:38;18.50;;;12.60;;
40170;SDS011;37650;52.790;18.268;2022-12-29T18:16:02;16.30;;;12.00;;
40170;SDS011;37650;52.790;18.268;2022-12-29T18:19:24;16.80;;;10.20;;
40170;SDS011;37650;52.790;18.268;2022-12-29T18:22:47;15.10;;;9.60;;
40170;SDS011;37650;52.790;18.268;2022-12-29T18:26:13;17.50;;;13.00;;
40170;SDS011;37650;52.790;18.268;2022-12-29T18:29:35;18.60;;;14.10;;
40170;SDS011;37650;52.790;18.268;2022-12-29T18:32:57;16.90;;;13.30;;
40170;SDS011;37650;52.790;18.268;2022-12-29T18:36:19;21.00;;;14.00;;
40170;SDS011;37650;52.790;18.268;2022-12-29T18:39:41;24.50;;;19.10;;
40170;SDS011;37650;52.790;18.268;2022-12-29T18:43:02;23.70;;;17.60;;
40170;SDS011;37650;52.790;18.268;2022-12-29T18:46:25;22.80;;;13.40;;
40170;SDS011;37650;52.790;18.268;2022-12-29T18:49:47;23.90;;;15.40;;
40170;SDS011;37650;52.790;18.268;2022-12-29T18:53:15;31.60;;;17.70;;
40170;SDS011;37650;52.790;18.268;2022-12-29T18:56:39;32.60;;;19.90;;
40170;SDS011;37650;52.790;18.268;2022-12-29T19:00:00;21.50;;;12.20;;
40170;SDS011;37650;52.790;18.268;2022-12-29T19:03:22;31.10;;;20.50;;
40170;SDS011;37650;52.790;18.268;2022-12-29T19:06:43;26.50;;;16.20;;
40170;SDS011;37650;52.790;18.268;2022-12-29T19:10:06;22.90;;;13.80;;
40170;SDS011;37650;52.790;18.268;2022-12-29T19:13:28;21.40;;;16.90;;
40170;SDS011;37650;52.790;18.268;2022-12-29T19:16:49;35.70;;;25.40;;
40170;SDS011;37650;52.790;18.268;2022-12-29T19:20:24;22.70;;;17.10;;
40170;SDS011;37650;52.790;18.268;2022-12-29T19:23:51;17.90;;;9.30;;
40170;SDS011;37650;52.790;18.268;2022-12-29T19:27:15;16.30;;;10.10;;
40170;SDS011;37650;52.790;18.268;2022-12-29T19:30:37;10.70;;;7.00;;
40170;SDS011;37650;52.790;18.268;2022-12-29T19:34:00;9.30;;;5.50;;
40170;SDS011;37650;52.790;18.268;2022-12-29T19:37:23;12.30;;;6.20;;
40170;SDS011;37650;52.790;18.268;2022-12-29T19:44:09;13.10;;;7.00;;
40170;SDS011;37650;52.790;18.268;2022-12-29T19:47:31;8.80;;;5.20;;
40170;SDS011;37650;52.790;18.268;2022-12-29T19:50:53;13.00;;;7.90;;
40170;SDS011;37650;52.790;18.268;2022-12-29T19:54:15;12.30;;;8.10;;
40170;SDS011;37650;52.790;18.268;2022-12-29T19:57:37;12.20;;;7.00;;
40170;SDS011;37650;52.790;18.268;2022-12-29T20:01:02;13.50;;;8.70;;
40170;SDS011;37650;52.790;18.268;2022-12-29T20:04:26;16.80;;;10.30;;
40170;SDS011;37650;52.790;18.268;2022-12-29T20:11:11;13.70;;;8.40;;
40170;SDS011;37650;52.790;18.268;2022-12-29T20:14:37;20.00;;;10.20;;
40170;SDS011;37650;52.790;18.268;2022-12-29T20:18:00;14.90;;;8.20;;
40170;SDS011;37650;52.790;18.268;2022-12-29T20:21:23;13.70;;;8.20;;
40170;SDS011;37650;52.790;18.268;2022-12-29T20:24:45;13.60;;;8.70;;
40170;SDS011;37650;52.790;18.268;2022-12-29T20:28:07;15.20;;;8.60;;
40170;SDS011;37650;52.790;18.268;2022-12-29T20:31:30;14.10;;;8.70;;
40170;SDS011;37650;52.790;18.268;2022-12-29T20:34:55;16.00;;;8.50;;
40170;SDS011;37650;52.790;18.268;2022-12-29T20:38:16;14.10;;;8.60;;
40170;SDS011;37650;52.790;18.268;2022-12-29T20:41:39;13.20;;;8.00;;
40170;SDS011;37650;52.790;18.268;2022-12-29T20:45:02;12.20;;;8.30;;
40170;SDS011;37650;52.790;18.268;2022-12-29T20:48:24;12.70;;;7.00;;
40170;SDS011;37650;52.790;18.268;2022-12-29T20:51:46;20.40;;;9.60;;
40170;SDS011;37650;52.790;18.268;2022-12-29T20:55:09;19.10;;;10.70;;
40170;SDS011;37650;52.790;18.268;2022-12-29T20:58:31;15.00;;;10.30;;
40170;SDS011;37650;52.790;18.268;2022-12-29T21:01:57;16.00;;;10.90;;
40170;SDS011;37650;52.790;18.268;2022-12-29T21:05:19;14.70;;;8.90;;
40170;SDS011;37650;52.790;18.268;2022-12-29T21:08:50;13.70;;;9.10;;
40170;SDS011;37650;52.790;18.268;2022-12-29T21:12:23;16.60;;;9.70;;
40170;SDS011;37650;52.790;18.268;2022-12-29T21:15:45;15.80;;;10.60;;
40170;SDS011;37650;52.790;18.268;2022-12-29T21:19:09;15.60;;;9.70;;
40170;SDS011;37650;52.790;18.268;2022-12-29T21:25:59;15.30;;;10.10;;
40170;SDS011;37650;52.790;18.268;2022-12-29T21:29:28;16.20;;;8.90;;
40170;SDS011;37650;52.790;18.268;2022-12-29T21:32:52;14.10;;;9.70;;
40170;SDS011;37650;52.790;18.268;2022-12-29T21:36:18;17.50;;;10.30;;
40170;SDS011;37650;52.790;18.268;2022-12-29T21:39:45;14.20;;;7.80;;
40170;SDS011;37650;52.790;18.268;2022-12-29T21:43:13;16.90;;;10.80;;
40170;SDS011;37650;52.790;18.268;2022-12-29T21:46:36;20.10;;;11.10;;
40170;SDS011;37650;52.790;18.268;2022-12-29T21:50:00;16.00;;;10.00;;
40170;SDS011;37650;52.790;18.268;2022-12-29T21:53:23;16.40;;;10.20;;
40170;SDS011;37650;52.790;18.268;2022-12-29T21:57:03;19.90;;;10.20;;
40170;SDS011;37650;52.790;18.268;2022-12-29T22:00:30;17.60;;;10.20;;
40170;SDS011;37650;52.790;18.268;2022-12-29T22:04:11;15.10;;;10.10;;
40170;SDS011;37650;52.790;18.268;2022-12-29T22:08:00;19.00;;;9.80;;
40170;SDS011;37650;52.790;18.268;2022-12-29T22:11:41;20.30;;;13.80;;
40170;SDS011;37650;52.790;18.268;2022-12-29T22:15:21;18.90;;;12.70;;
40170;SDS011;37650;52.790;18.268;2022-12-29T22:18:44;18.50;;;11.10;;
40170;SDS011;37650;52.790;18.268;2022-12-29T22:22:07;18.70;;;11.10;;
40170;SDS011;37650;52.790;18.268;2022-12-29T22:25:32;14.50;;;10.70;;
40170;SDS011;37650;52.790;18.268;2022-12-29T22:28:56;19.00;;;10.10;;
40170;SDS011;37650;52.790;18.268;2022-12-29T22:32:19;18.20;;;11.40;;
40170;SDS011;37650;52.790;18.268;2022-12-29T22:35:40;21.10;;;12.30;;
40170;SDS011;37650;52.790;18.268;2022-12-29T22:39:02;19.90;;;11.40;;
40170;SDS011;37650;52.790;18.268;2022-12-29T22:42:23;18.30;;;10.50;;
40170;SDS011;37650;52.790;18.268;2022-12-29T22:45:45;19.50;;;9.90;;
40170;SDS011;37650;52.790;18.268;2022-12-29T22:49:06;16.60;;;9.80;;
40170;SDS011;37650;52.790;18.268;2022-12-29T22:52:27;16.00;;;11.50;;
40170;SDS011;37650;52.790;18.268;2022-12-29T22:55:48;14.60;;;9.30;;
40170;SDS011;37650;52.790;18.268;2022-12-29T22:59:11;15.40;;;9.20;;
40170;SDS011;37650;52.790;18.268;2022-12-29T23:02:33;14.10;;;8.40;;
40170;SDS011;37650;52.790;18.268;2022-12-29T23:06:01;13.30;;;9.40;;
40170;SDS011;37650;52.790;18.268;2022-12-29T23:09:24;16.50;;;9.20;;
40170;SDS011;37650;52.790;18.268;2022-12-29T23:12:49;13.60;;;8.40;;